Time;durP1;ratioP1;P1;durP2;ratioP2;P2;SDS_P1;SDS_P2;PMS_P1;PMS_P2;Temp;Humidity;BMP_temperature;BMP_pressure;BME280_temperature;BME280_humidity;BME280_pressure;Samples;Min_cycle;Max_cycle;Signal;HPM_P1;HPM_P2
2023/03/16 00:02:19;;;;;;;1.23;1.10;;;8.20;99.90;;;;;;4995516;28;20541;-70
2023/03/16 00:04:48;;;;;;;1.30;1.20;;;8.20;99.90;;;;;;4994695;28;20814;-69
2023/03/16 00:07:16;;;;;;;1.40;1.13;;;8.20;99.90;;;;;;5000451;28;20467;-68
2023/03/16 00:09:45;;;;;;;1.63;1.43;;;8.20;99.90;;;;;;4986383;28;20448;-68
2023/03/16 00:12:17;;;;;;;1.77;1.43;;;8.20;99.90;;;;;;4994763;28;20574;-69
2023/03/16 00:14:47;;;;;;;1.23;0.80;;;8.20;99.90;;;;;;5000302;28;20919;-69
2023/03/16 00:17:18;;;;;;;1.40;1.30;;;8.20;99.90;;;;;;4988149;28;20475;-69
2023/03/16 00:19:50;;;;;;;1.63;1.20;;;8.20;99.90;;;;;;4983524;28;20459;-68
2023/03/16 00:22:18;;;;;;;1.70;1.37;;;8.20;99.90;;;;;;4986529;28;20451;-67
2023/03/16 00:24:46;;;;;;;1.77;1.65;;;8.20;99.90;;;;;;4974331;28;20494;-69
2023/03/16 00:27:17;;;;;;;1.50;1.30;;;8.20;99.90;;;;;;5001237;28;20660;-69
2023/03/16 00:29:47;;;;;;;1.60;1.30;;;8.20;99.90;;;;;;4984701;28;20483;-68
2023/03/16 00:32:17;;;;;;;2.30;1.20;;;8.20;99.90;;;;;;4972882;28;20442;-69
2023/03/16 00:34:46;;;;;;;1.40;1.30;;;8.20;99.90;;;;;;4995480;28;20452;-68
2023/03/16 00:37:17;;;;;;;1.73;1.63;;;8.10;99.90;;;;;;5000278;28;20484;-67
2023/03/16 00:39:46;;;;;;;2.00;1.37;;;8.10;99.90;;;;;;4988973;28;20819;-67
2023/03/16 00:42:17;;;;;;;1.50;1.30;;;8.10;99.90;;;;;;4979978;28;20839;-68
2023/03/16 00:44:46;;;;;;;2.50;1.63;;;8.10;99.90;;;;;;4997601;28;20531;-69
2023/03/16 00:47:17;;;;;;;1.80;1.70;;;8.10;99.90;;;;;;4996955;28;20473;-68
2023/03/16 00:49:46;;;;;;;1.33;1.00;;;8.10;99.90;;;;;;4984439;28;20475;-68
2023/03/16 00:52:18;;;;;;;1.40;1.30;;;8.10;99.90;;;;;;4995268;28;20448;-70
2023/03/16 00:54:48;;;;;;;2.13;1.50;;;8.10;99.90;;;;;;4994165;28;20478;-68
2023/03/16 00:57:18;;;;;;;1.37;1.20;;;8.10;99.90;;;;;;4985816;28;20465;-70
2023/03/16 00:59:47;;;;;;;2.30;1.80;;;8.00;99.90;;;;;;4992748;28;20539;-69
2023/03/16 01:02:18;;;;;;;1.77;1.47;;;8.10;99.90;;;;;;4994385;28;20459;-68
2023/03/16 01:04:47;;;;;;;1.73;1.33;;;8.00;99.90;;;;;;4996796;28;20480;-68
2023/03/16 01:07:15;;;;;;;1.13;0.98;;;8.00;99.90;;;;;;4990535;28;20227;-68
2023/03/16 01:09:44;;;;;;;1.97;1.60;;;8.00;99.90;;;;;;5000477;28;20276;-69
2023/03/16 01:12:15;;;;;;;1.30;1.20;;;8.00;99.90;;;;;;5003675;28;20484;-69
2023/03/16 01:14:47;;;;;;;1.83;1.43;;;7.90;99.90;;;;;;4998101;28;20467;-68
2023/03/16 01:17:16;;;;;;;1.40;1.30;;;7.90;99.90;;;;;;5002860;28;20475;-67
2023/03/16 01:19:46;;;;;;;1.60;1.45;;;7.90;99.90;;;;;;5001131;28;20266;-68
2023/03/16 01:22:17;;;;;;;1.23;1.13;;;7.90;99.90;;;;;;5001951;28;20203;-67
2023/03/16 01:24:45;;;;;;;2.83;1.30;;;7.90;99.90;;;;;;4987058;28;20546;-69
2023/03/16 01:27:14;;;;;;;3.22;1.75;;;7.90;99.90;;;;;;4984059;28;20227;-68
2023/03/16 01:29:43;;;;;;;1.95;1.75;;;7.90;99.90;;;;;;5002522;28;20299;-68
2023/03/16 01:32:14;;;;;;;2.00;1.80;;;7.90;99.90;;;;;;4998816;28;20206;-68
2023/03/16 01:34:43;;;;;;;2.00;1.65;;;7.90;99.90;;;;;;4994334;28;20206;-68
2023/03/16 01:37:13;;;;;;;1.60;1.50;;;7.90;99.90;;;;;;5001314;28;20279;-69
2023/03/16 01:39:56;;;;;;;2.17;1.87;;;7.90;99.90;;;;;;4996388;28;20996;-68
2023/03/16 01:42:24;;;;;;;1.42;1.30;;;7.80;99.90;;;;;;4986124;28;20475;-69
2023/03/16 01:44:55;;;;;;;1.50;1.40;;;7.80;99.90;;;;;;5002834;28;20214;-69
2023/03/16 01:47:36;;;;;;;2.45;1.80;;;7.80;99.90;;;;;;5004056;28;21581;-68
2023/03/16 01:50:07;;;;;;;2.50;1.30;;;7.80;99.90;;;;;;4994193;28;20291;-69
2023/03/16 01:52:39;;;;;;;2.50;1.60;;;7.80;99.90;;;;;;5002881;28;20443;-67
2023/03/16 01:55:12;;;;;;;2.00;1.80;;;7.80;99.90;;;;;;5000222;28;20920;-69
2023/03/16 01:57:45;;;;;;;4.05;1.90;;;7.80;99.90;;;;;;4982136;28;20467;-66
2023/03/16 02:00:23;;;;;;;2.03;1.60;;;7.80;99.90;;;;;;4986744;28;20231;-68
2023/03/16 02:03:13;;;;;;;1.45;1.20;;;7.80;99.90;;;;;;4996620;28;20204;-69
2023/03/16 02:06:07;;;;;;;2.17;1.67;;;7.80;99.90;;;;;;4980054;28;20224;-69
2023/03/16 02:08:38;;;;;;;1.60;1.40;;;7.80;99.90;;;;;;4997307;28;20219;-68
2023/03/16 02:11:08;;;;;;;2.15;1.67;;;7.80;99.90;;;;;;5002500;28;20346;-69
2023/03/16 02:13:47;;;;;;;2.40;1.30;;;7.70;99.90;;;;;;4983598;28;20685;-67
2023/03/16 02:16:18;;;;;;;1.80;1.40;;;7.70;99.90;;;;;;4986462;28;20479;-69
2023/03/16 02:18:51;;;;;;;1.33;1.23;;;7.80;99.90;;;;;;4998339;28;20508;-68
2023/03/16 02:21:28;;;;;;;2.45;2.15;;;7.80;99.90;;;;;;4997436;28;20225;-68
2023/03/16 02:23:57;;;;;;;2.92;1.90;;;7.80;99.90;;;;;;4978979;28;20290;-69
2023/03/16 02:26:32;;;;;;;1.42;1.33;;;7.70;99.90;;;;;;4996268;28;20851;-67
2023/03/16 02:29:14;;;;;;;1.67;1.38;;;7.80;99.90;;;;;;4982623;28;20207;-68
2023/03/16 02:31:47;;;;;;;1.67;1.58;;;7.80;99.90;;;;;;4998134;28;20492;-68
2023/03/16 02:34:17;;;;;;;1.50;1.33;;;7.80;99.90;;;;;;4991198;28;20221;-69
2023/03/16 02:36:48;;;;;;;1.80;1.60;;;7.80;99.90;;;;;;4992261;28;20701;-68
2023/03/16 02:39:19;;;;;;;2.05;1.50;;;7.80;99.90;;;;;;4985709;28;20445;-69
2023/03/16 02:41:48;;;;;;;1.40;1.30;;;7.80;99.90;;;;;;4989172;28;20217;-69
2023/03/16 02:44:23;;;;;;;2.45;2.25;;;7.80;99.90;;;;;;4983430;28;20207;-69
2023/03/16 02:46:57;;;;;;;1.52;1.42;;;7.70;99.90;;;;;;4988514;28;20197;-67
2023/03/16 02:49:30;;;;;;;1.85;1.23;;;7.80;99.90;;;;;;4981488;28;20630;-70
2023/03/16 02:51:59;;;;;;;1.70;1.40;;;7.70;99.90;;;;;;5001599;28;20550;-68
2023/03/16 02:54:27;;;;;;;2.47;1.70;;;7.70;99.90;;;;;;5001417;28;20230;-69
2023/03/16 02:56:56;;;;;;;1.30;1.20;;;7.80;99.90;;;;;;4979143;28;20220;-69
2023/03/16 02:59:27;;;;;;;1.70;1.60;;;7.80;99.90;;;;;;5001864;28;20216;-67
2023/03/16 03:01:57;;;;;;;2.33;1.67;;;7.70;99.90;;;;;;4978491;28;20225;-69
2023/03/16 03:04:25;;;;;;;5.03;1.40;;;7.70;99.90;;;;;;4994584;28;20295;-68
2023/03/16 03:06:54;;;;;;;1.88;1.60;;;7.70;99.90;;;;;;4974396;28;20198;-68
2023/03/16 03:09:22;;;;;;;1.80;1.70;;;7.70;99.90;;;;;;4992630;28;20208;-69
2023/03/16 03:11:53;;;;;;;2.47;1.35;;;7.70;99.90;;;;;;5003783;28;20229;-68
2023/03/16 03:14:24;;;;;;;1.27;1.17;;;7.70;99.90;;;;;;4988239;28;20247;-67
2023/03/16 03:16:52;;;;;;;1.63;1.52;;;7.70;99.90;;;;;;4977911;28;20279;-69
2023/03/16 03:19:23;;;;;;;1.95;1.60;;;7.70;99.90;;;;;;5003819;28;20216;-68
2023/03/16 03:21:55;;;;;;;1.48;1.38;;;7.70;99.90;;;;;;4987523;28;20300;-68
2023/03/16 03:24:24;;;;;;;1.48;1.27;;;7.70;99.90;;;;;;5000543;28;20281;-68
2023/03/16 03:26:52;;;;;;;2.25;1.08;;;7.70;99.90;;;;;;4971735;28;20224;-68
2023/03/16 03:29:21;;;;;;;1.13;1.02;;;7.70;99.90;;;;;;5004477;28;20192;-69
2023/03/16 03:31:49;;;;;;;1.50;1.40;;;7.70;99.90;;;;;;4995888;28;20686;-68
2023/03/16 03:34:17;;;;;;;1.25;1.15;;;7.80;99.90;;;;;;5004875;28;20898;-69
2023/03/16 03:36:47;;;;;;;1.60;1.40;;;7.70;99.90;;;;;;4989687;28;20227;-69
2023/03/16 03:39:16;;;;;;;1.73;1.63;;;7.80;99.90;;;;;;4979304;28;20262;-67
2023/03/16 03:41:45;;;;;;;1.40;1.30;;;7.80;99.90;;;;;;5000694;28;20243;-68
2023/03/16 03:44:13;;;;;;;1.95;1.55;;;7.70;99.90;;;;;;5004694;28;20239;-68
2023/03/16 03:46:42;;;;;;;2.38;1.48;;;7.70;99.90;;;;;;4986299;28;20201;-67
2023/03/16 03:49:11;;;;;;;1.50;1.40;;;7.70;99.90;;;;;;4987555;28;20583;-69
2023/03/16 03:51:40;;;;;;;1.50;1.40;;;7.70;99.90;;;;;;4988079;28;20435;-69
2023/03/16 03:54:15;;;;;;;2.85;1.85;;;7.70;99.90;;;;;;5003188;28;20447;-70
2023/03/16 03:56:57;;;;;;;1.77;1.40;;;7.80;99.90;;;;;;5002833;28;20677;-68
2023/03/16 03:59:25;;;;;;;1.33;1.23;;;7.70;99.90;;;;;;5002803;28;20521;-67
2023/03/16 04:02:20;;;;;;;1.67;1.58;;;7.70;99.90;;;;;;4971525;28;20232;-69
2023/03/16 04:04:52;;;;;;;1.42;1.30;;;7.70;99.90;;;;;;4996362;28;20207;-69
2023/03/16 04:07:21;;;;;;;1.65;1.50;;;7.70;99.90;;;;;;4999883;28;20249;-69
2023/03/16 04:09:53;;;;;;;2.30;1.33;;;7.70;99.90;;;;;;4996367;28;20238;-68
2023/03/16 04:12:30;;;;;;;1.75;1.35;;;7.70;99.90;;;;;;4997404;28;20815;-70
2023/03/16 04:14:58;;;;;;;2.93;1.60;;;7.70;99.90;;;;;;4990609;28;20236;-68
2023/03/16 04:17:34;;;;;;;1.38;1.20;;;7.70;99.90;;;;;;4998103;28;20838;-68
2023/03/16 04:20:12;;;;;;;2.55;1.75;;;7.70;99.90;;;;;;4985751;28;20316;-68
2023/03/16 04:22:42;;;;;;;2.40;1.70;;;7.70;99.90;;;;;;4999549;28;20249;-68
2023/03/16 04:25:14;;;;;;;1.55;1.45;;;7.70;99.90;;;;;;4998705;28;20217;-67
2023/03/16 04:27:45;;;;;;;2.08;1.40;;;7.70;99.90;;;;;;4996650;28;20229;-68
2023/03/16 04:30:16;;;;;;;1.35;1.25;;;7.70;99.90;;;;;;4999435;28;20230;-69
2023/03/16 04:32:51;;;;;;;2.45;1.30;;;7.70;99.90;;;;;;4989946;28;20225;-68
2023/03/16 04:35:21;;;;;;;1.70;1.60;;;7.70;99.90;;;;;;5005051;28;20281;-68
2023/03/16 04:37:54;;;;;;;2.00;1.50;;;7.70;99.90;;;;;;5003919;28;20309;-69
2023/03/16 04:40:29;;;;;;;2.38;1.55;;;7.70;99.90;;;;;;4999224;28;20318;-68
2023/03/16 04:43:07;;;;;;;1.83;1.60;;;7.70;99.90;;;;;;4990784;28;20599;-69
2023/03/16 04:45:36;;;;;;;1.70;1.20;;;7.70;99.90;;;;;;4993332;28;20476;-69
2023/03/16 04:48:05;;;;;;;2.33;1.77;;;7.70;99.90;;;;;;4973223;28;21102;-68
2023/03/16 04:50:34;;;;;;;1.58;1.40;;;7.70;99.90;;;;;;5004124;28;20468;-68
2023/03/16 04:53:03;;;;;;;1.75;1.55;;;7.70;99.90;;;;;;5004533;28;20803;-66
2023/03/16 04:55:33;;;;;;;1.80;1.70;;;7.70;99.90;;;;;;4986109;28;20255;-69
2023/03/16 04:58:02;;;;;;;1.63;1.30;;;7.70;99.90;;;;;;4993615;28;20235;-68
2023/03/16 05:00:35;;;;;;;1.70;1.60;;;7.70;99.90;;;;;;4998971;28;20263;-70
2023/03/16 05:03:09;;;;;;;1.67;1.50;;;7.70;99.90;;;;;;4997639;28;20838;-67
2023/03/16 05:05:38;;;;;;;3.15;1.15;;;7.70;99.90;;;;;;5002915;28;20720;-69
2023/03/16 05:08:07;;;;;;;1.90;1.60;;;7.70;99.90;;;;;;4982009;28;20221;-68
2023/03/16 05:10:39;;;;;;;1.90;1.10;;;7.70;99.90;;;;;;4985567;28;20474;-68
2023/03/16 05:13:08;;;;;;;1.80;1.48;;;7.70;99.90;;;;;;5000693;28;20202;-69
2023/03/16 05:15:37;;;;;;;1.38;1.20;;;7.70;99.90;;;;;;4993943;28;20220;-68
2023/03/16 05:18:17;;;;;;;1.50;1.40;;;7.70;99.90;;;;;;4983252;28;20231;-69
2023/03/16 05:20:45;;;;;;;2.65;1.95;;;7.70;99.90;;;;;;4995140;28;20222;-68
2023/03/16 05:23:15;;;;;;;2.00;1.30;;;7.70;99.90;;;;;;5001474;28;20208;-69
2023/03/16 05:25:49;;;;;;;1.73;1.05;;;7.70;99.90;;;;;;4997884;28;20225;-67
2023/03/16 05:28:21;;;;;;;3.13;2.00;;;7.70;99.90;;;;;;5002302;28;20697;-68
2023/03/16 05:30:56;;;;;;;2.45;2.13;;;7.70;99.90;;;;;;4987514;28;20297;-68
2023/03/16 05:33:27;;;;;;;2.40;1.40;;;7.70;99.90;;;;;;4987715;28;20678;-68
2023/03/16 05:36:02;;;;;;;2.28;1.98;;;7.70;99.90;;;;;;4990561;28;21117;-68
2023/03/16 05:38:32;;;;;;;2.67;1.60;;;7.70;99.90;;;;;;4982632;28;20313;-68
2023/03/16 05:41:03;;;;;;;1.40;1.30;;;7.60;99.90;;;;;;5001876;28;20219;-68
2023/03/16 05:44:03;;;;;;;1.30;1.20;;;7.70;99.90;;;;;;4959324;28;20703;-68
2023/03/16 05:47:03;;;;;;;2.20;1.58;;;7.60;99.90;;;;;;5000514;28;20277;-68
2023/03/16 05:49:34;;;;;;;1.52;1.42;;;7.60;99.90;;;;;;5001163;28;20241;-67
2023/03/16 05:52:07;;;;;;;1.27;1.02;;;7.60;99.90;;;;;;4983526;28;20248;-67
2023/03/16 05:54:36;;;;;;;1.55;1.45;;;7.60;99.90;;;;;;5005288;28;20203;-67
2023/03/16 05:57:06;;;;;;;1.83;1.73;;;7.60;99.90;;;;;;4984018;28;20198;-69
2023/03/16 05:59:36;;;;;;;1.40;1.30;;;7.60;99.90;;;;;;4995495;28;20298;-66
2023/03/16 06:02:05;;;;;;;2.47;1.70;;;7.60;99.90;;;;;;5002673;28;20197;-67
2023/03/16 06:04:34;;;;;;;1.55;1.45;;;7.60;99.90;;;;;;4990531;28;20211;-66
2023/03/16 06:07:02;;;;;;;1.55;1.45;;;7.60;99.90;;;;;;4991699;28;20239;-67
2023/03/16 06:09:31;;;;;;;2.60;1.80;;;7.60;99.90;;;;;;4978464;28;20818;-68
2023/03/16 06:12:03;;;;;;;2.45;1.80;;;7.60;99.90;;;;;;5003967;28;20188;-67
2023/03/16 06:14:34;;;;;;;1.60;1.00;;;7.60;99.90;;;;;;5000176;28;20667;-65
2023/03/16 06:17:03;;;;;;;2.15;1.85;;;7.60;99.90;;;;;;4997855;28;20275;-67
2023/03/16 06:19:33;;;;;;;1.55;1.42;;;7.60;99.90;;;;;;5002029;28;20247;-67
2023/03/16 06:22:02;;;;;;;1.92;1.60;;;7.60;99.90;;;;;;4994640;28;20199;-68
2023/03/16 06:24:31;;;;;;;2.15;1.55;;;7.60;99.90;;;;;;5000029;28;20787;-67
2023/03/16 06:26:59;;;;;;;1.85;1.50;;;7.60;99.90;;;;;;4986975;28;20211;-67
2023/03/16 06:29:35;;;;;;;2.25;1.65;;;7.60;99.90;;;;;;4990522;28;20255;-67
2023/03/16 06:32:04;;;;;;;1.83;1.60;;;7.60;99.90;;;;;;4995894;28;20203;-68
2023/03/16 06:34:33;;;;;;;1.55;1.27;;;7.60;99.90;;;;;;5003423;28;20223;-67
2023/03/16 06:37:03;;;;;;;1.40;1.30;;;7.60;99.90;;;;;;4994036;28;20183;-66
2023/03/16 06:39:31;;;;;;;2.20;1.58;;;7.60;99.90;;;;;;4997549;28;20224;-67
2023/03/16 06:42:00;;;;;;;5.43;1.70;;;7.60;99.90;;;;;;4980563;28;20197;-67
2023/03/16 06:44:28;;;;;;;2.10;1.60;;;7.60;99.90;;;;;;5000135;28;20239;-69
2023/03/16 06:47:04;;;;;;;2.08;1.20;;;7.60;99.90;;;;;;4980904;28;20201;-68
2023/03/16 06:49:33;;;;;;;1.75;1.20;;;7.50;99.90;;;;;;4984360;28;20201;-66
2023/03/16 06:52:05;;;;;;;2.30;1.80;;;7.60;99.90;;;;;;4993030;28;20669;-68
2023/03/16 06:54:36;;;;;;;3.25;1.98;;;7.50;99.90;;;;;;4994276;28;20238;-67
2023/03/16 06:57:04;;;;;;;1.70;1.60;;;7.50;99.90;;;;;;4985890;28;20309;-69
2023/03/16 06:59:33;;;;;;;3.38;1.77;;;7.50;99.90;;;;;;4992175;28;20673;-67
2023/03/16 07:02:01;;;;;;;1.42;1.33;;;7.60;99.90;;;;;;4993666;28;20705;-68
2023/03/16 07:04:32;;;;;;;1.83;1.73;;;7.50;99.90;;;;;;4979307;28;20232;-67
2023/03/16 07:07:01;;;;;;;1.55;1.42;;;7.60;99.90;;;;;;4986600;28;20188;-68
2023/03/16 07:09:30;;;;;;;2.65;1.60;;;7.50;99.90;;;;;;4988576;28;20584;-66
2023/03/16 07:11:58;;;;;;;1.50;1.20;;;7.50;99.90;;;;;;4993816;28;20562;-69
2023/03/16 07:14:27;;;;;;;1.58;1.42;;;7.50;99.90;;;;;;4986858;28;20248;-66
2023/03/16 07:16:57;;;;;;;2.00;1.42;;;7.60;99.90;;;;;;4994621;28;20212;-68
2023/03/16 07:19:26;;;;;;;2.60;2.25;;;7.50;99.90;;;;;;4977891;28;20267;-67
2023/03/16 07:22:02;;;;;;;5.03;1.85;;;7.60;99.90;;;;;;4990403;28;20259;-66
2023/03/16 07:24:34;;;;;;;2.67;1.95;;;7.50;99.90;;;;;;4987201;28;20311;-66
2023/03/16 07:27:02;;;;;;;1.48;1.20;;;7.50;99.90;;;;;;4980548;28;20623;-66
2023/03/16 07:29:33;;;;;;;1.52;1.33;;;7.50;99.90;;;;;;5000291;28;20215;-66
2023/03/16 07:32:03;;;;;;;3.20;1.85;;;7.50;99.90;;;;;;4993887;28;20204;-67
2023/03/16 07:34:37;;;;;;;1.65;1.45;;;7.50;99.90;;;;;;5000701;28;20202;-67
2023/03/16 07:37:07;;;;;;;1.98;1.80;;;7.50;99.90;;;;;;4994079;28;20198;-67
2023/03/16 07:39:36;;;;;;;1.85;1.48;;;7.50;99.90;;;;;;4997050;28;20276;-67
2023/03/16 07:42:10;;;;;;;2.25;1.70;;;7.50;99.90;;;;;;4985837;28;20283;-67
2023/03/16 07:44:48;;;;;;;2.75;1.35;;;7.50;99.90;;;;;;5000786;28;20296;-67
2023/03/16 07:47:19;;;;;;;1.83;1.63;;;7.50;99.90;;;;;;4992360;28;20726;-68
2023/03/16 07:49:52;;;;;;;1.77;1.45;;;7.50;99.90;;;;;;4996930;28;20240;-67
2023/03/16 07:52:22;;;;;;;1.77;1.60;;;7.50;99.90;;;;;;4998713;28;20207;-66
2023/03/16 07:54:52;;;;;;;2.55;1.42;;;7.50;99.90;;;;;;4978193;28;20310;-67
2023/03/16 07:57:20;;;;;;;2.15;1.95;;;7.50;99.90;;;;;;4999332;28;20315;-73
2023/03/16 07:59:49;;;;;;;1.85;1.20;;;7.50;99.90;;;;;;4980562;28;20310;-74
2023/03/16 08:02:20;;;;;;;1.60;1.50;;;7.50;99.90;;;;;;4978370;28;20560;-73
2023/03/16 08:04:50;;;;;;;2.03;1.83;;;7.50;99.90;;;;;;4992520;28;20217;-75
2023/03/16 08:07:19;;;;;;;1.38;1.27;;;7.50;99.90;;;;;;4996534;28;20217;-73
2023/03/16 08:10:04;;;;;;;2.88;1.60;;;7.50;99.90;;;;;;4993343;28;20725;-76
2023/03/16 08:12:41;;;;;;;1.20;1.10;;;7.50;99.90;;;;;;4994486;28;20195;-76
2023/03/16 08:15:11;;;;;;;1.63;1.50;;;7.40;99.90;;;;;;4997327;28;20196;-72
2023/03/16 08:17:41;;;;;;;2.33;1.40;;;7.50;99.90;;;;;;4984685;28;20680;-72
2023/03/16 08:20:14;;;;;;;2.58;1.75;;;7.40;99.90;;;;;;4992570;28;20225;-76
2023/03/16 08:22:45;;;;;;;2.65;1.60;;;7.40;99.90;;;;;;4984506;28;20208;-74
2023/03/16 08:25:18;;;;;;;3.00;1.70;;;7.50;99.90;;;;;;4994372;28;20217;-75
2023/03/16 08:28:00;;;;;;;2.05;1.63;;;7.40;99.90;;;;;;4997290;28;20251;-73
2023/03/16 08:30:29;;;;;;;2.08;1.38;;;7.50;99.90;;;;;;4984215;28;20207;-73
2023/03/16 08:33:21;;;;;;;1.63;1.50;;;7.40;99.90;;;;;;4974758;28;20211;-73
2023/03/16 08:35:52;;;;;;;2.25;1.55;;;7.40;99.90;;;;;;4999904;28;20268;-73
2023/03/16 08:38:20;;;;;;;2.00;1.60;;;7.50;99.90;;;;;;4996287;28;20225;-73
2023/03/16 08:40:52;;;;;;;2.58;1.73;;;7.50;99.90;;;;;;4997935;28;20228;-75
2023/03/16 08:43:22;;;;;;;3.25;1.73;;;7.50;99.90;;;;;;4993271;28;20217;-74
2023/03/16 08:45:52;;;;;;;2.30;1.20;;;7.50;99.90;;;;;;4977773;28;20236;-75
2023/03/16 08:48:24;;;;;;;1.92;1.10;;;7.50;99.90;;;;;;4986822;28;20283;-73
2023/03/16 08:50:52;;;;;;;1.63;1.52;;;7.50;99.90;;;;;;4997139;28;20284;-75
2023/03/16 08:53:21;;;;;;;1.92;1.73;;;7.50;99.90;;;;;;4974283;28;20196;-75
2023/03/16 08:55:50;;;;;;;2.22;1.77;;;7.50;99.90;;;;;;4984715;28;20253;-74
2023/03/16 08:58:20;;;;;;;1.55;1.30;;;7.50;99.90;;;;;;4979048;28;20224;-74
2023/03/16 09:00:48;;;;;;;2.03;1.50;;;7.50;99.90;;;;;;4977887;28;20647;-73
2023/03/16 09:03:18;;;;;;;1.95;1.48;;;7.50;99.90;;;;;;5002256;28;20241;-74
2023/03/16 09:05:48;;;;;;;4.50;1.10;;;7.50;99.90;;;;;;4998930;28;20243;-73
2023/03/16 09:08:17;;;;;;;4.50;1.73;;;7.50;99.90;;;;;;4995387;28;20214;-73
2023/03/16 09:10:45;;;;;;;1.60;1.10;;;7.50;99.90;;;;;;4981774;28;20276;-73
2023/03/16 09:13:15;;;;;;;2.00;1.25;;;7.50;99.90;;;;;;4972206;28;20257;-74
2023/03/16 09:15:45;;;;;;;1.30;1.20;;;7.50;99.90;;;;;;4997252;28;20315;-75
2023/03/16 09:18:13;;;;;;;2.30;1.60;;;7.50;99.90;;;;;;4999238;28;20231;-74
2023/03/16 09:20:42;;;;;;;1.63;1.30;;;7.50;99.90;;;;;;4999457;28;20319;-73
2023/03/16 09:23:10;;;;;;;2.67;1.25;;;7.50;99.90;;;;;;5000028;28;20213;-73
2023/03/16 09:25:39;;;;;;;1.88;1.30;;;7.50;99.90;;;;;;4988474;28;20241;-74
2023/03/16 09:28:07;;;;;;;1.95;1.70;;;7.50;99.90;;;;;;4984769;28;20352;-75
2023/03/16 09:30:37;;;;;;;1.52;1.42;;;7.50;99.90;;;;;;4975794;28;20215;-74
2023/03/16 09:33:06;;;;;;;1.52;1.42;;;7.50;99.90;;;;;;4981825;28;20205;-75
2023/03/16 09:35:37;;;;;;;1.58;1.48;;;7.50;99.90;;;;;;4979455;28;20220;-74
2023/03/16 09:38:06;;;;;;;1.60;1.30;;;7.50;99.90;;;;;;4981315;28;20301;-74
2023/03/16 09:40:36;;;;;;;2.45;1.55;;;7.50;99.90;;;;;;4980888;28;20225;-74
2023/03/16 09:43:24;;;;;;;1.70;1.45;;;7.50;99.90;;;;;;4992357;28;20203;-66
2023/03/16 09:46:00;;;;;;;1.88;1.45;;;7.50;99.90;;;;;;4998061;28;20256;-67
2023/03/16 09:48:32;;;;;;;1.63;1.40;;;7.50;99.90;;;;;;5000559;28;20239;-69
2023/03/16 09:51:03;;;;;;;3.28;1.65;;;7.50;99.90;;;;;;4998545;28;20230;-67
2023/03/16 09:53:35;;;;;;;2.72;1.35;;;7.50;99.90;;;;;;4999688;28;20202;-67
2023/03/16 09:56:05;;;;;;;1.50;1.40;;;7.50;99.90;;;;;;4997972;28;20607;-68
2023/03/16 09:58:35;;;;;;;1.75;1.30;;;7.50;99.90;;;;;;4982724;28;20221;-67
2023/03/16 10:01:13;;;;;;;2.55;1.67;;;7.50;99.90;;;;;;4974402;28;20250;-67
2023/03/16 10:04:03;;;;;;;2.25;1.50;;;7.50;99.90;;;;;;4987876;28;20211;-68
2023/03/16 10:06:32;;;;;;;2.90;1.88;;;7.50;99.90;;;;;;5000205;28;20247;-67
2023/03/16 10:09:13;;;;;;;1.70;1.35;;;7.50;99.90;;;;;;4978961;28;20651;-68
2023/03/16 10:11:44;;;;;;;1.40;1.30;;;7.50;99.90;;;;;;4984193;28;20208;-67
2023/03/16 10:14:21;;;;;;;1.92;1.50;;;7.50;99.90;;;;;;4991189;28;20587;-67
2023/03/16 10:16:52;;;;;;;2.45;1.45;;;7.60;99.90;;;;;;4977511;28;20210;-67
2023/03/16 10:19:30;;;;;;;1.40;1.30;;;7.50;99.90;;;;;;4992150;28;20219;-66
2023/03/16 10:22:00;;;;;;;1.17;1.08;;;7.50;99.90;;;;;;4980155;28;20654;-66
2023/03/16 10:24:41;;;;;;;1.75;1.35;;;7.50;99.90;;;;;;4995515;28;20729;-66
2023/03/16 10:27:19;;;;;;;2.05;1.42;;;7.60;99.90;;;;;;4975863;28;20691;-65
2023/03/16 10:29:47;;;;;;;1.33;1.23;;;7.60;99.90;;;;;;5002120;28;20198;-66
2023/03/16 10:32:18;;;;;;;2.80;1.50;;;7.60;99.90;;;;;;4973859;28;20222;-65
2023/03/16 10:34:54;;;;;;;1.45;1.20;;;7.60;99.90;;;;;;4997513;28;20247;-66
2023/03/16 10:37:26;;;;;;;1.15;1.05;;;7.60;99.90;;;;;;4976530;28;20216;-67
2023/03/16 10:39:55;;;;;;;1.15;1.05;;;7.60;99.90;;;;;;4986753;28;20206;-66
2023/03/16 10:42:25;;;;;;;2.35;1.30;;;7.60;99.90;;;;;;4986394;28;20321;-68
2023/03/16 10:44:58;;;;;;;1.55;1.40;;;7.60;99.90;;;;;;5002293;28;20249;-67
2023/03/16 10:47:31;;;;;;;1.70;1.27;;;7.60;99.90;;;;;;4988847;28;20617;-67
2023/03/16 10:50:13;;;;;;;1.30;1.00;;;7.60;99.90;;;;;;4991204;28;20241;-68
2023/03/16 10:52:45;;;;;;;2.70;1.05;;;7.60;99.90;;;;;;4988075;28;20194;-68
2023/03/16 10:55:19;;;;;;;3.20;1.27;;;7.60;99.90;;;;;;5003653;28;20242;-67
2023/03/16 10:57:50;;;;;;;1.45;1.27;;;7.60;99.90;;;;;;4988960;28;20313;-67
2023/03/16 11:00:22;;;;;;;2.47;1.60;;;7.60;99.90;;;;;;4987987;28;20354;-66
2023/03/16 11:02:52;;;;;;;1.38;1.10;;;7.60;99.90;;;;;;4997521;28;20224;-67
2023/03/16 11:05:29;;;;;;;1.40;1.15;;;7.60;99.90;;;;;;4988223;28;20229;-67
2023/03/16 11:08:02;;;;;;;1.50;1.30;;;7.60;99.90;;;;;;4980897;28;20217;-68
2023/03/16 11:10:33;;;;;;;3.38;1.38;;;7.60;99.90;;;;;;4984469;28;20649;-67
2023/03/16 11:13:13;;;;;;;1.90;1.00;;;7.60;99.90;;;;;;4980716;28;20696;-67
2023/03/16 11:15:47;;;;;;;1.50;1.40;;;7.60;99.90;;;;;;4989872;28;20218;-67
2023/03/16 11:18:28;;;;;;;1.15;0.88;;;7.60;99.90;;;;;;4998890;28;20651;-66
2023/03/16 11:21:00;;;;;;;1.10;1.00;;;7.60;99.90;;;;;;4994113;28;20260;-68
2023/03/16 11:23:32;;;;;;;1.63;1.10;;;7.60;99.90;;;;;;4978936;28;20211;-66
2023/03/16 11:26:04;;;;;;;1.30;1.20;;;7.60;99.90;;;;;;4993291;28;20970;-67
2023/03/16 11:28:37;;;;;;;1.35;1.25;;;7.70;99.90;;;;;;4999104;28;20654;-67
2023/03/16 11:31:19;;;;;;;2.10;1.10;;;7.70;99.90;;;;;;4975618;28;20221;-72
2023/03/16 11:33:48;;;;;;;1.95;0.80;;;7.70;99.90;;;;;;4980066;28;20259;-73
2023/03/16 11:36:28;;;;;;;1.85;1.70;;;7.70;99.90;;;;;;4980806;28;20703;-74
2023/03/16 11:39:07;;;;;;;1.20;1.10;;;7.70;99.90;;;;;;4978995;28;20213;-73
2023/03/16 11:41:47;;;;;;;2.08;1.10;;;7.70;99.90;;;;;;4992252;28;20223;-67
2023/03/16 11:44:27;;;;;;;1.27;0.80;;;7.70;99.90;;;;;;4992702;28;20212;-75
2023/03/16 11:47:06;;;;;;;1.77;1.10;;;7.70;99.90;;;;;;4979389;28;20228;-73
2023/03/16 11:49:48;;;;;;;1.50;1.07;;;7.70;99.90;;;;;;4982146;28;20885;-73
2023/03/16 11:52:26;;;;;;;1.77;1.00;;;7.70;99.90;;;;;;4996549;28;20448;-73
2023/03/16 11:55:06;;;;;;;1.17;0.95;;;7.70;99.90;;;;;;4981036;28;20282;-75
2023/03/16 11:57:47;;;;;;;1.27;0.70;;;7.70;99.90;;;;;;4978346;28;20249;-75
2023/03/16 12:00:31;;;;;;;1.35;1.10;;;7.70;99.90;;;;;;4992167;28;20719;-74
2023/03/16 12:03:38;;;;;;;1.42;0.93;;;7.70;99.90;;;;;;4983538;28;20207;-74
2023/03/16 12:06:19;;;;;;;1.13;0.98;;;7.70;99.90;;;;;;4976729;28;20231;-73
2023/03/16 12:09:14;;;;;;;1.48;1.15;;;7.70;99.90;;;;;;4994502;28;20227;-73
2023/03/16 12:11:53;;;;;;;1.58;1.35;;;7.70;99.90;;;;;;4998527;28;20258;-73
2023/03/16 12:14:27;;;;;;;1.10;1.00;;;7.70;99.90;;;;;;4978733;28;20521;-73
2023/03/16 12:16:59;;;;;;;1.85;1.00;;;7.70;99.90;;;;;;4989969;28;20296;-76
2023/03/16 12:19:39;;;;;;;1.10;1.00;;;7.70;99.90;;;;;;4997764;28;20643;-73
2023/03/16 12:22:17;;;;;;;2.00;0.70;;;7.70;99.90;;;;;;4991997;28;20204;-67
2023/03/16 12:24:47;;;;;;;1.17;1.05;;;7.70;99.90;;;;;;4991783;28;20346;-67
2023/03/16 12:27:18;;;;;;;1.92;1.10;;;7.70;99.90;;;;;;4995508;28;20229;-67
2023/03/16 12:29:58;;;;;;;1.08;0.98;;;7.70;99.90;;;;;;4973899;28;20220;-68
2023/03/16 12:32:35;;;;;;;1.40;1.30;;;7.80;99.90;;;;;;4989397;28;20195;-67
2023/03/16 12:35:16;;;;;;;1.65;1.10;;;7.80;99.90;;;;;;4971453;28;20638;-67
2023/03/16 12:37:54;;;;;;;2.28;1.25;;;7.80;99.90;;;;;;4999144;28;20231;-70
2023/03/16 12:40:31;;;;;;;1.17;1.08;;;7.80;99.90;;;;;;4988843;28;20310;-67
2023/03/16 12:43:12;;;;;;;2.45;1.27;;;7.80;99.90;;;;;;4969372;28;20199;-67
2023/03/16 12:45:48;;;;;;;3.40;1.20;;;7.80;99.90;;;;;;4998376;28;20256;-69
2023/03/16 12:48:23;;;;;;;1.23;0.90;;;7.80;99.90;;;;;;4986689;28;20310;-67
2023/03/16 12:50:54;;;;;;;3.08;1.38;;;7.80;99.90;;;;;;4992882;28;20707;-68
2023/03/16 12:53:27;;;;;;;1.25;1.15;;;7.80;99.90;;;;;;4976969;28;20205;-68
2023/03/16 12:55:57;;;;;;;1.20;0.80;;;7.80;99.90;;;;;;4978096;28;20213;-68
2023/03/16 12:58:27;;;;;;;2.65;1.30;;;7.80;99.90;;;;;;5000914;28;20321;-66
2023/03/16 13:00:58;;;;;;;1.33;1.20;;;7.80;99.90;;;;;;4984631;28;20610;-68
2023/03/16 13:03:28;;;;;;;3.58;1.02;;;7.80;99.90;;;;;;4980238;28;20270;-67
2023/03/16 13:05:59;;;;;;;1.92;1.00;;;7.80;99.90;;;;;;4979879;28;20261;-67
2023/03/16 13:08:29;;;;;;;0.82;0.63;;;7.80;99.90;;;;;;4995521;28;20255;-67
2023/03/16 13:11:04;;;;;;;1.27;1.17;;;7.80;99.90;;;;;;4984552;28;20217;-68
2023/03/16 13:13:34;;;;;;;1.27;0.95;;;7.80;99.90;;;;;;4993071;28;20200;-67
2023/03/16 13:16:09;;;;;;;1.23;1.00;;;7.80;99.90;;;;;;4980572;28;20221;-66
2023/03/16 13:18:43;;;;;;;1.15;0.95;;;7.80;99.90;;;;;;4996190;28;20231;-68
2023/03/16 13:21:18;;;;;;;1.33;0.90;;;7.80;99.90;;;;;;4997815;28;20255;-68
2023/03/16 13:23:56;;;;;;;1.45;0.95;;;7.80;99.90;;;;;;4979523;28;20208;-69
2023/03/16 13:26:40;;;;;;;0.90;0.70;;;7.80;99.90;;;;;;4989122;28;20268;-67